sensor_id;sensor_type;location;lat;lon;timestamp;temperature;humidity
10903;DHT22;5504;47.312;11.060;2023-11-18T00:01:31;5.90;94.00
10903;DHT22;5504;47.312;11.060;2023-11-18T00:03:56;5.80;94.00
10903;DHT22;5504;47.312;11.060;2023-11-18T00:06:22;5.90;93.90
10903;DHT22;5504;47.312;11.060;2023-11-18T00:08:48;5.90;93.70
10903;DHT22;5504;47.312;11.060;2023-11-18T00:11:13;5.90;93.80
10903;DHT22;5504;47.312;11.060;2023-11-18T00:13:39;5.90;93.90
10903;DHT22;5504;47.312;11.060;2023-11-18T00:16:06;5.90;94.30
10903;DHT22;5504;47.312;11.060;2023-11-18T00:18:32;5.90;94.10
10903;DHT22;5504;47.312;11.060;2023-11-18T00:20:58;5.90;94.10
10903;DHT22;5504;47.312;11.060;2023-11-18T00:23:24;5.90;94.20
10903;DHT22;5504;47.312;11.060;2023-11-18T00:25:52;5.80;94.00
10903;DHT22;5504;47.312;11.060;2023-11-18T00:28:18;5.90;93.90
10903;DHT22;5504;47.312;11.060;2023-11-18T00:30:45;5.90;93.80
10903;DHT22;5504;47.312;11.060;2023-11-18T00:33:11;5.90;94.00
10903;DHT22;5504;47.312;11.060;2023-11-18T00:35:37;5.90;94.10
10903;DHT22;5504;47.312;11.060;2023-11-18T00:38:02;5.90;94.10
10903;DHT22;5504;47.312;11.060;2023-11-18T00:40:28;5.80;93.70
10903;DHT22;5504;47.312;11.060;2023-11-18T00:42:57;5.80;94.00
10903;DHT22;5504;47.312;11.060;2023-11-18T00:45:23;5.80;94.10
10903;DHT22;5504;47.312;11.060;2023-11-18T00:47:48;5.90;94.20
10903;DHT22;5504;47.312;11.060;2023-11-18T00:50:14;5.80;94.20
10903;DHT22;5504;47.312;11.060;2023-11-18T00:52:40;5.80;94.10
10903;DHT22;5504;47.312;11.060;2023-11-18T00:55:08;5.90;94.20
10903;DHT22;5504;47.312;11.060;2023-11-18T00:57:36;5.80;94.10
10903;DHT22;5504;47.312;11.060;2023-11-18T01:00:06;5.80;94.10
10903;DHT22;5504;47.312;11.060;2023-11-18T01:02:32;5.70;94.10
10903;DHT22;5504;47.312;11.060;2023-11-18T01:04:58;5.70;94.10
10903;DHT22;5504;47.312;11.060;2023-11-18T01:07:23;5.70;94.20
10903;DHT22;5504;47.312;11.060;2023-11-18T01:09:49;5.60;94.30
10903;DHT22;5504;47.312;11.060;2023-11-18T01:12:15;5.70;94.40
10903;DHT22;5504;47.312;11.060;2023-11-18T01:14:41;5.70;94.40
10903;DHT22;5504;47.312;11.060;2023-11-18T01:17:07;5.70;94.40
10903;DHT22;5504;47.312;11.060;2023-11-18T01:19:35;5.60;94.30
10903;DHT22;5504;47.312;11.060;2023-11-18T01:22:01;5.70;94.50
10903;DHT22;5504;47.312;11.060;2023-11-18T01:24:34;5.70;94.50
10903;DHT22;5504;47.312;11.060;2023-11-18T01:27:00;5.70;94.40
10903;DHT22;5504;47.312;11.060;2023-11-18T01:29:26;5.80;94.40
10903;DHT22;5504;47.312;11.060;2023-11-18T01:31:52;5.80;94.30
10903;DHT22;5504;47.312;11.060;2023-11-18T01:34:19;5.80;94.20
10903;DHT22;5504;47.312;11.060;2023-11-18T01:36:47;5.70;94.10
10903;DHT22;5504;47.312;11.060;2023-11-18T01:39:16;5.70;94.00
10903;DHT22;5504;47.312;11.060;2023-11-18T01:41:46;5.80;94.10
10903;DHT22;5504;47.312;11.060;2023-11-18T01:44:12;5.70;93.70
10903;DHT22;5504;47.312;11.060;2023-11-18T01:46:41;5.80;93.60
10903;DHT22;5504;47.312;11.060;2023-11-18T01:49:11;5.80;93.20
10903;DHT22;5504;47.312;11.060;2023-11-18T01:51:38;5.50;93.10
10903;DHT22;5504;47.312;11.060;2023-11-18T01:54:06;5.40;93.20
10903;DHT22;5504;47.312;11.060;2023-11-18T01:56:33;5.30;93.30
10903;DHT22;5504;47.312;11.060;2023-11-18T01:58:59;5.10;93.60
10903;DHT22;5504;47.312;11.060;2023-11-18T02:01:27;5.20;93.40
10903;DHT22;5504;47.312;11.060;2023-11-18T02:03:53;5.20;93.30
10903;DHT22;5504;47.312;11.060;2023-11-18T02:06:19;5.10;93.20
10903;DHT22;5504;47.312;11.060;2023-11-18T02:08:47;5.00;93.10
10903;DHT22;5504;47.312;11.060;2023-11-18T02:11:37;5.00;93.20
10903;DHT22;5504;47.312;11.060;2023-11-18T02:14:07;5.10;93.20
10903;DHT22;5504;47.312;11.060;2023-11-18T02:16:38;4.90;93.10
10903;DHT22;5504;47.312;11.060;2023-11-18T02:19:09;4.90;93.10
10903;DHT22;5504;47.312;11.060;2023-11-18T02:21:42;4.90;93.40
10903;DHT22;5504;47.312;11.060;2023-11-18T02:24:09;4.90;93.40
10903;DHT22;5504;47.312;11.060;2023-11-18T02:26:35;5.00;93.10
10903;DHT22;5504;47.312;11.060;2023-11-18T02:29:01;4.90;93.20
10903;DHT22;5504;47.312;11.060;2023-11-18T02:31:33;4.70;93.30
10903;DHT22;5504;47.312;11.060;2023-11-18T02:34:12;4.50;93.50
10903;DHT22;5504;47.312;11.060;2023-11-18T02:36:45;4.60;93.60
10903;DHT22;5504;47.312;11.060;2023-11-18T02:39:25;4.70;93.80
10903;DHT22;5504;47.312;11.060;2023-11-18T02:41:55;4.60;93.70
10903;DHT22;5504;47.312;11.060;2023-11-18T02:44:24;4.60;93.70
10903;DHT22;5504;47.312;11.060;2023-11-18T02:46:51;4.60;93.60
10903;DHT22;5504;47.312;11.060;2023-11-18T02:49:17;4.60;93.70
10903;DHT22;5504;47.312;11.060;2023-11-18T02:51:43;4.60;93.80
10903;DHT22;5504;47.312;11.060;2023-11-18T02:54:13;4.60;93.50
10903;DHT22;5504;47.312;11.060;2023-11-18T02:56:39;4.50;93.50
10903;DHT22;5504;47.312;11.060;2023-11-18T02:59:05;4.70;93.50
10903;DHT22;5504;47.312;11.060;2023-11-18T03:01:34;4.80;93.20
10903;DHT22;5504;47.312;11.060;2023-11-18T03:04:00;4.80;93.00
10903;DHT22;5504;47.312;11.060;2023-11-18T03:06:26;4.70;93.00
10903;DHT22;5504;47.312;11.060;2023-11-18T03:08:52;4.80;93.00
10903;DHT22;5504;47.312;11.060;2023-11-18T03:11:19;4.70;92.90
10903;DHT22;5504;47.312;11.060;2023-11-18T03:13:45;4.80;92.90
10903;DHT22;5504;47.312;11.060;2023-11-18T03:16:14;4.60;92.80
10903;DHT22;5504;47.312;11.060;2023-11-18T03:18:40;4.40;92.90
10903;DHT22;5504;47.312;11.060;2023-11-18T03:21:13;4.40;93.20
10903;DHT22;5504;47.312;11.060;2023-11-18T03:23:40;4.30;93.30
10903;DHT22;5504;47.312;11.060;2023-11-18T03:26:07;4.20;93.30
10903;DHT22;5504;47.312;11.060;2023-11-18T03:28:33;4.20;93.40
10903;DHT22;5504;47.312;11.060;2023-11-18T03:30:59;4.30;93.70
10903;DHT22;5504;47.312;11.060;2023-11-18T03:33:25;4.30;93.60
10903;DHT22;5504;47.312;11.060;2023-11-18T03:35:50;4.30;93.60
10903;DHT22;5504;47.312;11.060;2023-11-18T03:38:16;4.30;93.60
10903;DHT22;5504;47.312;11.060;2023-11-18T03:40:45;4.30;93.90
10903;DHT22;5504;47.312;11.060;2023-11-18T03:43:11;4.30;93.90
10903;DHT22;5504;47.312;11.060;2023-11-18T03:45:39;4.40;93.60
10903;DHT22;5504;47.312;11.060;2023-11-18T03:48:06;4.50;93.50
10903;DHT22;5504;47.312;11.060;2023-11-18T03:50:32;4.50;93.50
10903;DHT22;5504;47.312;11.060;2023-11-18T03:52:58;4.30;93.50
10903;DHT22;5504;47.312;11.060;2023-11-18T03:55:24;4.50;93.70
10903;DHT22;5504;47.312;11.060;2023-11-18T03:57:51;4.40;93.60
10903;DHT22;5504;47.312;11.060;2023-11-18T04:00:18;4.40;93.80
10903;DHT22;5504;47.312;11.060;2023-11-18T04:02:46;4.40;93.70
10903;DHT22;5504;47.312;11.060;2023-11-18T04:05:12;4.40;93.70
10903;DHT22;5504;47.312;11.060;2023-11-18T04:07:38;4.40;93.60
10903;DHT22;5504;47.312;11.060;2023-11-18T04:10:08;4.50;93.80
10903;DHT22;5504;47.312;11.060;2023-11-18T04:12:36;4.50;93.70
10903;DHT22;5504;47.312;11.060;2023-11-18T04:15:04;4.40;93.70
10903;DHT22;5504;47.312;11.060;2023-11-18T04:17:30;4.50;93.70
10903;DHT22;5504;47.312;11.060;2023-11-18T04:19:56;4.50;93.70
10903;DHT22;5504;47.312;11.060;2023-11-18T04:22:23;4.40;93.70
10903;DHT22;5504;47.312;11.060;2023-11-18T04:24:49;4.30;93.80
10903;DHT22;5504;47.312;11.060;2023-11-18T04:27:15;4.40;93.70
10903;DHT22;5504;47.312;11.060;2023-11-18T04:29:41;4.50;93.70
10903;DHT22;5504;47.312;11.060;2023-11-18T04:32:07;4.50;93.50
10903;DHT22;5504;47.312;11.060;2023-11-18T04:34:36;4.40;93.60
10903;DHT22;5504;47.312;11.060;2023-11-18T04:37:03;4.40;93.60
10903;DHT22;5504;47.312;11.060;2023-11-18T04:39:32;4.40;93.70
10903;DHT22;5504;47.312;11.060;2023-11-18T04:41:57;4.40;93.70
10903;DHT22;5504;47.312;11.060;2023-11-18T04:44:23;4.40;93.80
10903;DHT22;5504;47.312;11.060;2023-11-18T04:46:49;4.40;93.80
10903;DHT22;5504;47.312;11.060;2023-11-18T04:49:15;4.40;93.80
10903;DHT22;5504;47.312;11.060;2023-11-18T04:51:41;4.60;93.70
10903;DHT22;5504;47.312;11.060;2023-11-18T04:54:07;4.40;93.30
10903;DHT22;5504;47.312;11.060;2023-11-18T04:56:34;4.40;93.40
10903;DHT22;5504;47.312;11.060;2023-11-18T04:59:02;4.30;93.50
10903;DHT22;5504;47.312;11.060;2023-11-18T05:01:28;4.30;93.50
10903;DHT22;5504;47.312;11.060;2023-11-18T05:03:53;4.30;93.60
10903;DHT22;5504;47.312;11.060;2023-11-18T05:06:19;4.30;93.70
10903;DHT22;5504;47.312;11.060;2023-11-18T05:08:45;4.40;93.80
10903;DHT22;5504;47.312;11.060;2023-11-18T05:11:11;4.40;93.60
10903;DHT22;5504;47.312;11.060;2023-11-18T05:13:38;4.50;93.40
10903;DHT22;5504;47.312;11.060;2023-11-18T05:16:06;4.50;92.90
10903;DHT22;5504;47.312;11.060;2023-11-18T05:18:32;4.30;92.80
10903;DHT22;5504;47.312;11.060;2023-11-18T05:21:01;4.30;92.80
10903;DHT22;5504;47.312;11.060;2023-11-18T05:23:28;4.20;92.90
10903;DHT22;5504;47.312;11.060;2023-11-18T05:25:57;4.20;93.00
10903;DHT22;5504;47.312;11.060;2023-11-18T05:28:24;4.00;92.90
10903;DHT22;5504;47.312;11.060;2023-11-18T05:30:50;4.00;93.00
10903;DHT22;5504;47.312;11.060;2023-11-18T05:33:16;4.10;92.90
10903;DHT22;5504;47.312;11.060;2023-11-18T05:35:43;4.00;93.00
10903;DHT22;5504;47.312;11.060;2023-11-18T05:38:18;3.90;93.10
10903;DHT22;5504;47.312;11.060;2023-11-18T05:40:47;3.90;93.30
10903;DHT22;5504;47.312;11.060;2023-11-18T05:43:27;3.90;93.40
10903;DHT22;5504;47.312;11.060;2023-11-18T05:45:55;4.00;93.20
10903;DHT22;5504;47.312;11.060;2023-11-18T05:48:43;4.10;93.00
10903;DHT22;5504;47.312;11.060;2023-11-18T05:51:09;4.00;92.70
10903;DHT22;5504;47.312;11.060;2023-11-18T05:53:42;4.00;92.70
10903;DHT22;5504;47.312;11.060;2023-11-18T05:56:13;3.90;92.60
10903;DHT22;5504;47.312;11.060;2023-11-18T05:58:39;4.00;92.60
10903;DHT22;5504;47.312;11.060;2023-11-18T06:01:06;3.90;92.80
10903;DHT22;5504;47.312;11.060;2023-11-18T06:03:35;3.80;92.90
10903;DHT22;5504;47.312;11.060;2023-11-18T06:06:08;3.90;92.90
10903;DHT22;5504;47.312;11.060;2023-11-18T06:08:35;3.80;92.80
10903;DHT22;5504;47.312;11.060;2023-11-18T06:11:02;3.70;92.70
10903;DHT22;5504;47.312;11.060;2023-11-18T06:13:39;3.70;92.90
10903;DHT22;5504;47.312;11.060;2023-11-18T06:16:09;3.90;92.90
10903;DHT22;5504;47.312;11.060;2023-11-18T06:18:35;3.80;92.70
10903;DHT22;5504;47.312;11.060;2023-11-18T06:21:01;3.80;92.70
10903;DHT22;5504;47.312;11.060;2023-11-18T06:23:27;3.80;92.60
10903;DHT22;5504;47.312;11.060;2023-11-18T06:25:53;3.70;92.40
10903;DHT22;5504;47.312;11.060;2023-11-18T06:28:18;3.70;92.50
10903;DHT22;5504;47.312;11.060;2023-11-18T06:30:44;3.50;92.30
10903;DHT22;5504;47.312;11.060;2023-11-18T06:33:10;3.50;92.70
10903;DHT22;5504;47.312;11.060;2023-11-18T06:35:37;3.50;92.80
10903;DHT22;5504;47.312;11.060;2023-11-18T06:38:03;3.40;92.70
10903;DHT22;5504;47.312;11.060;2023-11-18T06:40:28;3.50;92.90
10903;DHT22;5504;47.312;11.060;2023-11-18T06:42:55;3.50;92.80
10903;DHT22;5504;47.312;11.060;2023-11-18T06:45:27;3.50;92.70
10903;DHT22;5504;47.312;11.060;2023-11-18T06:47:53;3.50;92.80
10903;DHT22;5504;47.312;11.060;2023-11-18T06:50:19;3.40;92.80
10903;DHT22;5504;47.312;11.060;2023-11-18T06:52:50;3.30;92.90
10903;DHT22;5504;47.312;11.060;2023-11-18T06:55:16;3.30;92.90
10903;DHT22;5504;47.312;11.060;2023-11-18T06:57:42;3.30;93.00
10903;DHT22;5504;47.312;11.060;2023-11-18T07:00:10;3.40;92.90
10903;DHT22;5504;47.312;11.060;2023-11-18T07:02:36;3.30;92.80
10903;DHT22;5504;47.312;11.060;2023-11-18T07:05:02;3.30;92.80
10903;DHT22;5504;47.312;11.060;2023-11-18T07:07:28;3.30;92.80
10903;DHT22;5504;47.312;11.060;2023-11-18T07:09:54;3.10;92.70
10903;DHT22;5504;47.312;11.060;2023-11-18T07:12:21;3.20;92.90
10903;DHT22;5504;47.312;11.060;2023-11-18T07:14:48;3.20;92.90
10903;DHT22;5504;47.312;11.060;2023-11-18T07:17:14;3.30;93.10
10903;DHT22;5504;47.312;11.060;2023-11-18T07:19:39;3.30;93.30
10903;DHT22;5504;47.312;11.060;2023-11-18T07:22:05;3.50;93.60
10903;DHT22;5504;47.312;11.060;2023-11-18T07:24:32;3.70;93.80
10903;DHT22;5504;47.312;11.060;2023-11-18T07:26:58;4.10;94.10
10903;DHT22;5504;47.312;11.060;2023-11-18T07:29:25;4.60;93.80
10903;DHT22;5504;47.312;11.060;2023-11-18T07:31:52;4.90;93.10
10903;DHT22;5504;47.312;11.060;2023-11-18T07:34:22;5.50;92.80
10903;DHT22;5504;47.312;11.060;2023-11-18T07:36:49;5.80;91.30
10903;DHT22;5504;47.312;11.060;2023-11-18T07:39:15;6.10;90.80
10903;DHT22;5504;47.312;11.060;2023-11-18T07:41:44;6.30;90.00
10903;DHT22;5504;47.312;11.060;2023-11-18T07:44:10;6.50;89.50
10903;DHT22;5504;47.312;11.060;2023-11-18T07:46:38;6.50;88.50
10903;DHT22;5504;47.312;11.060;2023-11-18T07:49:04;6.60;88.20
10903;DHT22;5504;47.312;11.060;2023-11-18T07:51:29;6.20;89.20
10903;DHT22;5504;47.312;11.060;2023-11-18T07:53:55;6.00;90.70
10903;DHT22;5504;47.312;11.060;2023-11-18T07:56:21;6.20;90.70
10903;DHT22;5504;47.312;11.060;2023-11-18T07:58:49;6.80;90.00
10903;DHT22;5504;47.312;11.060;2023-11-18T08:01:17;7.00;88.60
10903;DHT22;5504;47.312;11.060;2023-11-18T08:03:43;6.50;90.50
10903;DHT22;5504;47.312;11.060;2023-11-18T08:06:10;7.00;90.60
10903;DHT22;5504;47.312;11.060;2023-11-18T08:08:37;7.20;88.50
10903;DHT22;5504;47.312;11.060;2023-11-18T08:11:04;8.00;88.50
10903;DHT22;5504;47.312;11.060;2023-11-18T08:13:30;8.30;85.80
10903;DHT22;5504;47.312;11.060;2023-11-18T08:15:56;8.90;85.90
10903;DHT22;5504;47.312;11.060;2023-11-18T08:18:23;8.80;82.80
10903;DHT22;5504;47.312;11.060;2023-11-18T08:20:49;8.90;83.20
10903;DHT22;5504;47.312;11.060;2023-11-18T08:23:15;9.20;83.50
10903;DHT22;5504;47.312;11.060;2023-11-18T08:25:41;9.30;81.00
10903;DHT22;5504;47.312;11.060;2023-11-18T08:28:08;9.30;81.20
10903;DHT22;5504;47.312;11.060;2023-11-18T08:30:34;9.10;81.30
10903;DHT22;5504;47.312;11.060;2023-11-18T08:33:00;9.00;82.20
10903;DHT22;5504;47.312;11.060;2023-11-18T08:35:26;9.00;82.10
10903;DHT22;5504;47.312;11.060;2023-11-18T08:37:52;8.90;83.00
10903;DHT22;5504;47.312;11.060;2023-11-18T08:40:18;8.70;83.30
10903;DHT22;5504;47.312;11.060;2023-11-18T08:42:51;8.40;83.70
10903;DHT22;5504;47.312;11.060;2023-11-18T08:45:20;8.90;84.00
10903;DHT22;5504;47.312;11.060;2023-11-18T08:47:56;8.40;81.70
10903;DHT22;5504;47.312;11.060;2023-11-18T08:50:22;8.10;82.80
10903;DHT22;5504;47.312;11.060;2023-11-18T08:52:52;8.30;83.70
10903;DHT22;5504;47.312;11.060;2023-11-18T08:55:28;8.50;84.40
10903;DHT22;5504;47.312;11.060;2023-11-18T08:57:59;8.70;84.30
10903;DHT22;5504;47.312;11.060;2023-11-18T09:00:30;8.80;82.30
10903;DHT22;5504;47.312;11.060;2023-11-18T09:03:15;9.40;83.20
10903;DHT22;5504;47.312;11.060;2023-11-18T09:05:52;10.60;82.10
10903;DHT22;5504;47.312;11.060;2023-11-18T09:08:36;11.40;78.90
10903;DHT22;5504;47.312;11.060;2023-11-18T09:11:09;11.60;75.10
10903;DHT22;5504;47.312;11.060;2023-11-18T09:13:44;11.20;74.10
10903;DHT22;5504;47.312;11.060;2023-11-18T09:16:35;10.90;75.80
10903;DHT22;5504;47.312;11.060;2023-11-18T09:19:05;9.20;76.90
10903;DHT22;5504;47.312;11.060;2023-11-18T09:21:31;9.20;81.30
10903;DHT22;5504;47.312;11.060;2023-11-18T09:24:01;9.20;80.50
10903;DHT22;5504;47.312;11.060;2023-11-18T09:26:30;8.30;82.30
10903;DHT22;5504;47.312;11.060;2023-11-18T09:28:56;8.90;83.90
10903;DHT22;5504;47.312;11.060;2023-11-18T09:31:24;9.50;80.80
10903;DHT22;5504;47.312;11.060;2023-11-18T09:33:50;9.80;81.50
10903;DHT22;5504;47.312;11.060;2023-11-18T09:36:19;9.80;77.30
10903;DHT22;5504;47.312;11.060;2023-11-18T09:38:46;9.50;78.40
10903;DHT22;5504;47.312;11.060;2023-11-18T09:41:15;10.30;79.60
10903;DHT22;5504;47.312;11.060;2023-11-18T09:43:43;10.90;77.50
10903;DHT22;5504;47.312;11.060;2023-11-18T09:46:26;11.10;75.40
10903;DHT22;5504;47.312;11.060;2023-11-18T09:48:59;11.30;74.70
10903;DHT22;5504;47.312;11.060;2023-11-18T09:51:38;11.50;74.90
10903;DHT22;5504;47.312;11.060;2023-11-18T09:54:30;11.40;76.20
10903;DHT22;5504;47.312;11.060;2023-11-18T10:00:04;10.40;75.60
10903;DHT22;5504;47.312;11.060;2023-11-18T10:02:49;9.90;75.80
10903;DHT22;5504;47.312;11.060;2023-11-18T10:05:16;8.80;78.70
10903;DHT22;5504;47.312;11.060;2023-11-18T10:07:47;9.30;81.40
10903;DHT22;5504;47.312;11.060;2023-11-18T10:10:13;9.10;79.40
10903;DHT22;5504;47.312;11.060;2023-11-18T10:12:46;8.80;79.00
10903;DHT22;5504;47.312;11.060;2023-11-18T10:15:19;9.30;81.30
10903;DHT22;5504;47.312;11.060;2023-11-18T10:17:49;9.40;80.70
10903;DHT22;5504;47.312;11.060;2023-11-18T10:20:44;9.00;79.40
10903;DHT22;5504;47.312;11.060;2023-11-18T10:23:14;9.00;78.80
10903;DHT22;5504;47.312;11.060;2023-11-18T10:25:49;9.10;78.90
10903;DHT22;5504;47.312;11.060;2023-11-18T10:28:21;9.60;79.20
10903;DHT22;5504;47.312;11.060;2023-11-18T10:30:55;9.00;77.00
10903;DHT22;5504;47.312;11.060;2023-11-18T10:33:24;10.00;78.60
10903;DHT22;5504;47.312;11.060;2023-11-18T10:35:56;9.40;75.60
10903;DHT22;5504;47.312;11.060;2023-11-18T10:38:22;9.10;78.00
10903;DHT22;5504;47.312;11.060;2023-11-18T10:40:55;9.30;77.40
10903;DHT22;5504;47.312;11.060;2023-11-18T10:43:22;9.40;77.80
10903;DHT22;5504;47.312;11.060;2023-11-18T10:48:44;11.30;75.80
10903;DHT22;5504;47.312;11.060;2023-11-18T10:51:16;12.00;71.20
10903;DHT22;5504;47.312;11.060;2023-11-18T10:53:47;12.60;72.40
10903;DHT22;5504;47.312;11.060;2023-11-18T10:56:22;12.60;69.00
10903;DHT22;5504;47.312;11.060;2023-11-18T11:01:33;12.00;67.90
10903;DHT22;5504;47.312;11.060;2023-11-18T11:04:00;12.60;71.30
10903;DHT22;5504;47.312;11.060;2023-11-18T11:06:30;12.10;66.90
10903;DHT22;5504;47.312;11.060;2023-11-18T11:08:57;11.70;71.90
10903;DHT22;5504;47.312;11.060;2023-11-18T11:11:25;12.80;71.00
10903;DHT22;5504;47.312;11.060;2023-11-18T11:13:59;13.40;68.40
10903;DHT22;5504;47.312;11.060;2023-11-18T11:16:40;12.70;64.20
10903;DHT22;5504;47.312;11.060;2023-11-18T11:19:26;12.70;68.50
10903;DHT22;5504;47.312;11.060;2023-11-18T11:22:03;13.10;66.60
10903;DHT22;5504;47.312;11.060;2023-11-18T11:25:10;13.70;67.00
10903;DHT22;5504;47.312;11.060;2023-11-18T11:27:54;12.70;62.70
10903;DHT22;5504;47.312;11.060;2023-11-18T11:31:17;13.20;66.20
10903;DHT22;5504;47.312;11.060;2023-11-18T11:33:43;13.10;62.10
10903;DHT22;5504;47.312;11.060;2023-11-18T11:36:15;13.40;63.00
10903;DHT22;5504;47.312;11.060;2023-11-18T11:38:43;13.20;61.80
10903;DHT22;5504;47.312;11.060;2023-11-18T11:41:13;13.50;63.70
10903;DHT22;5504;47.312;11.060;2023-11-18T11:43:47;12.30;65.90
10903;DHT22;5504;47.312;11.060;2023-11-18T11:46:13;11.10;68.00
10903;DHT22;5504;47.312;11.060;2023-11-18T11:48:40;11.30;71.10
10903;DHT22;5504;47.312;11.060;2023-11-18T11:53:58;12.60;67.30
10903;DHT22;5504;47.312;11.060;2023-11-18T11:56:42;12.60;64.30
10903;DHT22;5504;47.312;11.060;2023-11-18T11:59:09;12.80;64.30
10903;DHT22;5504;47.312;11.060;2023-11-18T12:01:37;13.20;65.20
10903;DHT22;5504;47.312;11.060;2023-11-18T12:04:09;11.40;63.10
10903;DHT22;5504;47.312;11.060;2023-11-18T12:06:47;10.60;67.60
10903;DHT22;5504;47.312;11.060;2023-11-18T12:09:21;10.80;68.70
10903;DHT22;5504;47.312;11.060;2023-11-18T12:11:47;11.20;68.50
10903;DHT22;5504;47.312;11.060;2023-11-18T12:14:17;11.10;67.80
10903;DHT22;5504;47.312;11.060;2023-11-18T12:17:07;11.20;66.00
10903;DHT22;5504;47.312;11.060;2023-11-18T12:19:46;11.20;68.10
10903;DHT22;5504;47.312;11.060;2023-11-18T12:22:14;11.20;67.70
10903;DHT22;5504;47.312;11.060;2023-11-18T12:27:45;9.70;71.90
10903;DHT22;5504;47.312;11.060;2023-11-18T12:33:05;10.40;73.00
10903;DHT22;5504;47.312;11.060;2023-11-18T12:38:50;10.00;69.90
10903;DHT22;5504;47.312;11.060;2023-11-18T12:41:35;9.10;69.00
10903;DHT22;5504;47.312;11.060;2023-11-18T12:46:52;9.80;70.30
10903;DHT22;5504;47.312;11.060;2023-11-18T12:49:22;9.20;71.20
10903;DHT22;5504;47.312;11.060;2023-11-18T12:51:52;8.80;71.10
10903;DHT22;5504;47.312;11.060;2023-11-18T12:54:23;9.20;73.50
10903;DHT22;5504;47.312;11.060;2023-11-18T12:56:56;9.60;72.60
10903;DHT22;5504;47.312;11.060;2023-11-18T12:59:22;9.80;70.20
10903;DHT22;5504;47.312;11.060;2023-11-18T13:01:52;9.70;71.40
10903;DHT22;5504;47.312;11.060;2023-11-18T13:04:27;9.60;71.20
10903;DHT22;5504;47.312;11.060;2023-11-18T13:06:53;9.90;70.00
10903;DHT22;5504;47.312;11.060;2023-11-18T13:09:21;10.00;71.00
10903;DHT22;5504;47.312;11.060;2023-11-18T13:11:58;10.10;70.30
10903;DHT22;5504;47.312;11.060;2023-11-18T13:14:25;9.70;70.20
10903;DHT22;5504;47.312;11.060;2023-11-18T13:16:52;9.80;72.90
10903;DHT22;5504;47.312;11.060;2023-11-18T13:21:43;10.10;70.30
10903;DHT22;5504;47.312;11.060;2023-11-18T13:24:09;10.10;70.00
10903;DHT22;5504;47.312;11.060;2023-11-18T13:26:35;10.30;71.40
10903;DHT22;5504;47.312;11.060;2023-11-18T13:29:01;10.30;70.10
10903;DHT22;5504;47.312;11.060;2023-11-18T13:31:28;10.10;69.70
10903;DHT22;5504;47.312;11.060;2023-11-18T13:33:53;9.80;70.30
10903;DHT22;5504;47.312;11.060;2023-11-18T13:36:19;10.00;71.10
10903;DHT22;5504;47.312;11.060;2023-11-18T13:38:48;9.90;71.20
10903;DHT22;5504;47.312;11.060;2023-11-18T13:41:28;10.10;71.30
10903;DHT22;5504;47.312;11.060;2023-11-18T13:43:54;10.20;70.00
10903;DHT22;5504;47.312;11.060;2023-11-18T13:46:21;10.10;70.10
10903;DHT22;5504;47.312;11.060;2023-11-18T13:48:48;10.00;70.00
10903;DHT22;5504;47.312;11.060;2023-11-18T13:51:15;9.60;69.70
10903;DHT22;5504;47.312;11.060;2023-11-18T13:53:42;9.70;70.40
10903;DHT22;5504;47.312;11.060;2023-11-18T13:56:10;9.40;69.60
10903;DHT22;5504;47.312;11.060;2023-11-18T13:58:36;9.00;70.00
10903;DHT22;5504;47.312;11.060;2023-11-18T14:01:10;8.40;71.70
10903;DHT22;5504;47.312;11.060;2023-11-18T14:03:38;8.70;73.80
10903;DHT22;5504;47.312;11.060;2023-11-18T14:06:09;9.00;73.50
10903;DHT22;5504;47.312;11.060;2023-11-18T14:08:38;9.30;73.80
10903;DHT22;5504;47.312;11.060;2023-11-18T14:11:08;9.40;72.70
10903;DHT22;5504;47.312;11.060;2023-11-18T14:13:35;9.50;71.90
10903;DHT22;5504;47.312;11.060;2023-11-18T14:16:04;9.50;70.50
10903;DHT22;5504;47.312;11.060;2023-11-18T14:18:35;9.60;71.90
10903;DHT22;5504;47.312;11.060;2023-11-18T14:21:01;9.60;70.70
10903;DHT22;5504;47.312;11.060;2023-11-18T14:23:27;9.60;70.00
10903;DHT22;5504;47.312;11.060;2023-11-18T14:25:53;9.70;71.30
10903;DHT22;5504;47.312;11.060;2023-11-18T14:28:19;9.90;72.10
10903;DHT22;5504;47.312;11.060;2023-11-18T14:30:48;9.90;72.20
10903;DHT22;5504;47.312;11.060;2023-11-18T14:33:14;9.90;70.80
10903;DHT22;5504;47.312;11.060;2023-11-18T14:35:40;9.90;70.50
10903;DHT22;5504;47.312;11.060;2023-11-18T14:38:09;9.80;73.00
10903;DHT22;5504;47.312;11.060;2023-11-18T14:40:35;9.80;73.40
10903;DHT22;5504;47.312;11.060;2023-11-18T14:43:01;9.60;75.00
10903;DHT22;5504;47.312;11.060;2023-11-18T14:45:27;9.40;76.10
10903;DHT22;5504;47.312;11.060;2023-11-18T14:47:53;9.40;76.90
10903;DHT22;5504;47.312;11.060;2023-11-18T14:50:21;9.40;79.30
10903;DHT22;5504;47.312;11.060;2023-11-18T14:52:50;9.30;78.90
10903;DHT22;5504;47.312;11.060;2023-11-18T14:55:29;9.30;80.00
10903;DHT22;5504;47.312;11.060;2023-11-18T14:57:55;9.20;79.80
10903;DHT22;5504;47.312;11.060;2023-11-18T15:00:21;9.10;79.40
10903;DHT22;5504;47.312;11.060;2023-11-18T15:02:51;9.00;79.70
10903;DHT22;5504;47.312;11.060;2023-11-18T15:05:18;8.90;80.20
10903;DHT22;5504;47.312;11.060;2023-11-18T15:07:54;8.80;81.30
10903;DHT22;5504;47.312;11.060;2023-11-18T15:10:22;8.80;81.70
10903;DHT22;5504;47.312;11.060;2023-11-18T15:12:57;8.70;81.70
10903;DHT22;5504;47.312;11.060;2023-11-18T15:15:31;8.60;81.30
10903;DHT22;5504;47.312;11.060;2023-11-18T15:18:05;8.40;81.80
10903;DHT22;5504;47.312;11.060;2023-11-18T15:20:36;8.40;82.40
10903;DHT22;5504;47.312;11.060;2023-11-18T15:23:02;8.30;82.90
10903;DHT22;5504;47.312;11.060;2023-11-18T15:25:29;8.00;83.30
10903;DHT22;5504;47.312;11.060;2023-11-18T15:27:55;8.00;83.60
10903;DHT22;5504;47.312;11.060;2023-11-18T15:30:22;8.00;83.30
10903;DHT22;5504;47.312;11.060;2023-11-18T15:32:50;8.00;84.10
10903;DHT22;5504;47.312;11.060;2023-11-18T15:35:15;7.90;85.00
10903;DHT22;5504;47.312;11.060;2023-11-18T15:37:43;7.90;85.80
10903;DHT22;5504;47.312;11.060;2023-11-18T15:40:12;7.80;85.80
10903;DHT22;5504;47.312;11.060;2023-11-18T15:42:43;7.80;86.40
10903;DHT22;5504;47.312;11.060;2023-11-18T15:45:13;7.70;86.30
10903;DHT22;5504;47.312;11.060;2023-11-18T15:47:41;7.90;86.60
10903;DHT22;5504;47.312;11.060;2023-11-18T15:50:11;7.90;86.20
10903;DHT22;5504;47.312;11.060;2023-11-18T15:52:47;7.80;87.20
10903;DHT22;5504;47.312;11.060;2023-11-18T15:55:14;7.70;87.20
10903;DHT22;5504;47.312;11.060;2023-11-18T15:57:41;7.60;87.90
10903;DHT22;5504;47.312;11.060;2023-11-18T16:00:11;7.60;88.40
10903;DHT22;5504;47.312;11.060;2023-11-18T16:02:45;7.50;88.20
10903;DHT22;5504;47.312;11.060;2023-11-18T16:05:15;7.60;87.90
10903;DHT22;5504;47.312;11.060;2023-11-18T16:07:43;7.70;88.20
10903;DHT22;5504;47.312;11.060;2023-11-18T16:10:09;7.90;87.90
10903;DHT22;5504;47.312;11.060;2023-11-18T16:12:36;7.90;87.40
10903;DHT22;5504;47.312;11.060;2023-11-18T16:15:02;7.90;87.40
10903;DHT22;5504;47.312;11.060;2023-11-18T16:17:31;7.80;87.30
10903;DHT22;5504;47.312;11.060;2023-11-18T16:19:56;7.60;88.30